sensor_id;sensor_type;location;lat;lon;timestamp;pressure;altitude;pressure_sealevel;temperature;humidity
13974;BME280;7060;43.770;4.008;2023-04-26T00:00:05;100989.81;;;13.39;44.84
13974;BME280;7060;43.770;4.008;2023-04-26T00:02:35;101008.22;;;13.52;44.96
13974;BME280;7060;43.770;4.008;2023-04-26T00:05:05;100999.00;;;13.54;44.43
13974;BME280;7060;43.770;4.008;2023-04-26T00:07:37;101010.91;;;13.52;45.53
13974;BME280;7060;43.770;4.008;2023-04-26T00:10:06;101005.34;;;13.45;46.29
13974;BME280;7060;43.770;4.008;2023-04-26T00:12:35;101000.97;;;13.44;46.59
13974;BME280;7060;43.770;4.008;2023-04-26T00:15:09;100996.50;;;13.35;47.20
13974;BME280;7060;43.770;4.008;2023-04-26T00:17:38;100993.06;;;13.25;47.82
13974;BME280;7060;43.770;4.008;2023-04-26T00:20:08;101001.06;;;13.17;47.34
13974;BME280;7060;43.770;4.008;2023-04-26T00:22:40;100995.47;;;13.10;48.20
13974;BME280;7060;43.770;4.008;2023-04-26T00:25:09;100991.88;;;13.02;48.25
13974;BME280;7060;43.770;4.008;2023-04-26T00:27:38;100999.50;;;12.88;49.00
13974;BME280;7060;43.770;4.008;2023-04-26T00:30:07;100993.34;;;12.78;49.45
13974;BME280;7060;43.770;4.008;2023-04-26T00:32:36;100999.78;;;12.68;49.70
13974;BME280;7060;43.770;4.008;2023-04-26T00:35:07;101000.41;;;12.62;50.36
13974;BME280;7060;43.770;4.008;2023-04-26T00:37:35;101000.47;;;12.52;50.29
13974;BME280;7060;43.770;4.008;2023-04-26T00:40:06;101002.22;;;12.43;50.62
13974;BME280;7060;43.770;4.008;2023-04-26T00:42:37;101011.88;;;12.36;51.26
13974;BME280;7060;43.770;4.008;2023-04-26T00:45:06;100990.88;;;12.32;50.31
13974;BME280;7060;43.770;4.008;2023-04-26T00:47:35;101004.28;;;12.32;50.46
13974;BME280;7060;43.770;4.008;2023-04-26T00:50:06;101000.06;;;12.29;50.42
13974;BME280;7060;43.770;4.008;2023-04-26T00:52:34;100998.81;;;12.24;50.16
13974;BME280;7060;43.770;4.008;2023-04-26T00:55:03;100998.56;;;12.17;50.64
13974;BME280;7060;43.770;4.008;2023-04-26T00:57:34;101002.00;;;12.09;51.15
13974;BME280;7060;43.770;4.008;2023-04-26T01:00:04;100998.81;;;11.96;51.58
13974;BME280;7060;43.770;4.008;2023-04-26T01:02:32;101010.72;;;11.84;52.43
13974;BME280;7060;43.770;4.008;2023-04-26T01:05:01;100995.09;;;11.70;52.96
13974;BME280;7060;43.770;4.008;2023-04-26T01:07:30;101003.31;;;11.59;53.05
13974;BME280;7060;43.770;4.008;2023-04-26T01:10:01;100998.69;;;11.51;53.27
13974;BME280;7060;43.770;4.008;2023-04-26T01:12:31;100970.03;;;11.24;53.67
13974;BME280;7060;43.770;4.008;2023-04-26T01:15:01;100992.53;;;11.31;54.02
13974;BME280;7060;43.770;4.008;2023-04-26T01:17:31;101003.41;;;11.20;54.58
13974;BME280;7060;43.770;4.008;2023-04-26T01:19:59;101008.06;;;11.08;54.85
13974;BME280;7060;43.770;4.008;2023-04-26T01:22:32;101012.19;;;10.93;55.53
13974;BME280;7060;43.770;4.008;2023-04-26T01:25:03;101008.94;;;10.90;55.71
13974;BME280;7060;43.770;4.008;2023-04-26T01:27:35;101009.22;;;10.86;56.01
13974;BME280;7060;43.770;4.008;2023-04-26T01:30:04;101011.16;;;10.75;56.00
13974;BME280;7060;43.770;4.008;2023-04-26T01:32:33;101011.16;;;10.65;56.63
13974;BME280;7060;43.770;4.008;2023-04-26T01:35:02;101009.84;;;10.50;57.15
13974;BME280;7060;43.770;4.008;2023-04-26T01:37:33;101007.59;;;10.36;57.61
13974;BME280;7060;43.770;4.008;2023-04-26T01:40:01;100996.88;;;10.26;57.44
13974;BME280;7060;43.770;4.008;2023-04-26T01:42:32;100994.59;;;10.22;57.40
13974;BME280;7060;43.770;4.008;2023-04-26T01:45:00;100998.69;;;10.16;57.37
13974;BME280;7060;43.770;4.008;2023-04-26T01:47:49;100994.28;;;10.05;57.42
13974;BME280;7060;43.770;4.008;2023-04-26T01:50:19;100995.81;;;9.98;57.69
13974;BME280;7060;43.770;4.008;2023-04-26T01:52:49;100989.03;;;9.94;58.13
13974;BME280;7060;43.770;4.008;2023-04-26T01:55:17;100991.03;;;9.92;57.88
13974;BME280;7060;43.770;4.008;2023-04-26T01:57:46;100993.84;;;9.91;58.32
13974;BME280;7060;43.770;4.008;2023-04-26T02:00:15;100992.69;;;9.83;58.56
13974;BME280;7060;43.770;4.008;2023-04-26T02:02:48;100995.28;;;9.74;58.29
13974;BME280;7060;43.770;4.008;2023-04-26T02:05:16;100993.31;;;9.66;58.78
13974;BME280;7060;43.770;4.008;2023-04-26T02:07:45;100998.22;;;9.61;58.13
13974;BME280;7060;43.770;4.008;2023-04-26T02:10:15;101005.63;;;9.58;58.39
13974;BME280;7060;43.770;4.008;2023-04-26T02:12:43;101002.63;;;9.51;58.92
13974;BME280;7060;43.770;4.008;2023-04-26T02:15:12;100995.28;;;9.43;58.89
13974;BME280;7060;43.770;4.008;2023-04-26T02:17:41;100986.00;;;9.38;58.82
13974;BME280;7060;43.770;4.008;2023-04-26T02:20:10;100987.38;;;9.32;58.81
13974;BME280;7060;43.770;4.008;2023-04-26T02:22:39;100981.13;;;9.22;59.83
13974;BME280;7060;43.770;4.008;2023-04-26T02:25:08;100994.22;;;9.14;59.37
13974;BME280;7060;43.770;4.008;2023-04-26T02:27:39;100988.63;;;9.17;60.02
13974;BME280;7060;43.770;4.008;2023-04-26T02:30:08;100989.88;;;9.13;59.78
13974;BME280;7060;43.770;4.008;2023-04-26T02:32:37;100988.84;;;9.04;59.61
13974;BME280;7060;43.770;4.008;2023-04-26T02:35:06;100985.59;;;9.01;60.40
13974;BME280;7060;43.770;4.008;2023-04-26T02:37:34;100984.88;;;8.99;60.55
13974;BME280;7060;43.770;4.008;2023-04-26T02:40:04;100994.81;;;8.97;60.78
13974;BME280;7060;43.770;4.008;2023-04-26T02:42:34;100994.22;;;8.93;59.84
13974;BME280;7060;43.770;4.008;2023-04-26T02:45:05;100998.97;;;8.90;60.48
13974;BME280;7060;43.770;4.008;2023-04-26T02:47:34;100990.78;;;8.81;60.88
13974;BME280;7060;43.770;4.008;2023-04-26T02:50:03;100985.97;;;8.75;60.46
13974;BME280;7060;43.770;4.008;2023-04-26T02:52:32;100987.19;;;8.71;60.79
13974;BME280;7060;43.770;4.008;2023-04-26T02:55:00;100987.19;;;8.71;61.28
13974;BME280;7060;43.770;4.008;2023-04-26T02:57:30;100989.13;;;8.69;60.67
13974;BME280;7060;43.770;4.008;2023-04-26T02:59:58;100987.09;;;8.62;61.55
13974;BME280;7060;43.770;4.008;2023-04-26T03:02:28;100991.81;;;8.58;61.25
13974;BME280;7060;43.770;4.008;2023-04-26T03:04:58;100998.53;;;8.53;61.63
13974;BME280;7060;43.770;4.008;2023-04-26T03:07:27;100991.88;;;8.47;61.67
13974;BME280;7060;43.770;4.008;2023-04-26T03:09:55;100984.25;;;8.42;61.97
13974;BME280;7060;43.770;4.008;2023-04-26T03:12:24;100985.09;;;8.43;61.61
13974;BME280;7060;43.770;4.008;2023-04-26T03:14:52;100984.38;;;8.41;61.38
13974;BME280;7060;43.770;4.008;2023-04-26T03:17:22;100991.91;;;8.36;61.83
13974;BME280;7060;43.770;4.008;2023-04-26T03:19:53;100985.41;;;8.29;62.14
13974;BME280;7060;43.770;4.008;2023-04-26T03:22:22;100990.00;;;8.27;62.25
13974;BME280;7060;43.770;4.008;2023-04-26T03:24:51;100988.31;;;8.14;62.84
13974;BME280;7060;43.770;4.008;2023-04-26T03:27:20;100999.22;;;8.11;63.12
13974;BME280;7060;43.770;4.008;2023-04-26T03:29:49;101003.69;;;8.11;62.25
13974;BME280;7060;43.770;4.008;2023-04-26T03:32:17;100998.00;;;8.04;62.87
13974;BME280;7060;43.770;4.008;2023-04-26T03:34:46;100992.25;;;7.99;62.83
13974;BME280;7060;43.770;4.008;2023-04-26T03:37:17;100999.75;;;7.94;62.73
13974;BME280;7060;43.770;4.008;2023-04-26T03:39:52;100991.28;;;7.89;63.17
13974;BME280;7060;43.770;4.008;2023-04-26T03:42:22;100994.91;;;7.88;63.31
13974;BME280;7060;43.770;4.008;2023-04-26T03:44:51;100989.69;;;7.87;63.06
13974;BME280;7060;43.770;4.008;2023-04-26T03:47:21;101000.69;;;7.82;63.07
13974;BME280;7060;43.770;4.008;2023-04-26T03:49:50;100997.56;;;7.77;63.66
13974;BME280;7060;43.770;4.008;2023-04-26T03:52:20;100991.53;;;7.75;63.34
13974;BME280;7060;43.770;4.008;2023-04-26T03:54:48;101000.13;;;7.67;63.48
13974;BME280;7060;43.770;4.008;2023-04-26T03:57:16;100996.59;;;7.67;64.08
13974;BME280;7060;43.770;4.008;2023-04-26T03:59:45;100991.25;;;7.56;64.13
13974;BME280;7060;43.770;4.008;2023-04-26T04:02:13;101002.63;;;7.58;63.85
13974;BME280;7060;43.770;4.008;2023-04-26T04:04:42;101001.91;;;7.56;63.80
13974;BME280;7060;43.770;4.008;2023-04-26T04:07:11;100999.72;;;7.49;64.33
13974;BME280;7060;43.770;4.008;2023-04-26T04:09:42;100999.03;;;7.47;64.27
13974;BME280;7060;43.770;4.008;2023-04-26T04:12:10;101002.88;;;7.43;63.96
13974;BME280;7060;43.770;4.008;2023-04-26T04:14:39;101002.03;;;7.43;64.73
13974;BME280;7060;43.770;4.008;2023-04-26T04:17:08;101008.56;;;7.39;64.54
13974;BME280;7060;43.770;4.008;2023-04-26T04:19:36;101003.34;;;7.37;64.32
13974;BME280;7060;43.770;4.008;2023-04-26T04:22:05;101001.66;;;7.36;63.83
13974;BME280;7060;43.770;4.008;2023-04-26T04:24:33;101008.78;;;7.36;64.02
13974;BME280;7060;43.770;4.008;2023-04-26T04:27:04;101011.69;;;7.33;64.96
13974;BME280;7060;43.770;4.008;2023-04-26T04:29:33;101014.41;;;7.31;64.18
13974;BME280;7060;43.770;4.008;2023-04-26T04:32:01;101015.84;;;7.24;64.85
13974;BME280;7060;43.770;4.008;2023-04-26T04:34:33;101009.56;;;7.25;64.65
13974;BME280;7060;43.770;4.008;2023-04-26T04:37:03;101016.09;;;7.21;65.31
13974;BME280;7060;43.770;4.008;2023-04-26T04:39:32;101016.47;;;7.28;65.09
13974;BME280;7060;43.770;4.008;2023-04-26T04:42:00;101021.78;;;7.28;65.15
13974;BME280;7060;43.770;4.008;2023-04-26T04:44:31;101016.34;;;7.29;64.67
13974;BME280;7060;43.770;4.008;2023-04-26T04:46:59;101010.28;;;7.27;64.69
13974;BME280;7060;43.770;4.008;2023-04-26T04:49:27;101009.44;;;7.27;64.78
13974;BME280;7060;43.770;4.008;2023-04-26T04:51:57;101010.75;;;7.21;65.30
13974;BME280;7060;43.770;4.008;2023-04-26T04:54:25;101008.59;;;7.15;65.55
13974;BME280;7060;43.770;4.008;2023-04-26T04:56:55;101026.25;;;7.16;64.88
13974;BME280;7060;43.770;4.008;2023-04-26T04:59:24;101027.44;;;7.23;65.33
13974;BME280;7060;43.770;4.008;2023-04-26T05:01:55;101025.47;;;7.38;64.64
13974;BME280;7060;43.770;4.008;2023-04-26T05:04:24;101015.56;;;7.40;64.15
13974;BME280;7060;43.770;4.008;2023-04-26T05:06:53;101019.19;;;7.50;64.10
13974;BME280;7060;43.770;4.008;2023-04-26T05:09:22;101024.28;;;7.53;64.44
13974;BME280;7060;43.770;4.008;2023-04-26T05:11:51;101020.88;;;7.51;64.38
13974;BME280;7060;43.770;4.008;2023-04-26T05:14:19;101026.81;;;7.43;64.41
13974;BME280;7060;43.770;4.008;2023-04-26T05:16:48;101029.94;;;7.37;65.37
13974;BME280;7060;43.770;4.008;2023-04-26T05:19:17;101026.31;;;7.38;65.05
13974;BME280;7060;43.770;4.008;2023-04-26T05:21:46;101022.34;;;7.44;64.73
13974;BME280;7060;43.770;4.008;2023-04-26T05:24:14;101025.63;;;7.47;65.58
13974;BME280;7060;43.770;4.008;2023-04-26T05:26:43;101030.44;;;7.54;65.29
13974;BME280;7060;43.770;4.008;2023-04-26T05:29:34;101029.75;;;7.63;65.30
13974;BME280;7060;43.770;4.008;2023-04-26T05:32:03;101023.19;;;7.78;65.77
13974;BME280;7060;43.770;4.008;2023-04-26T05:34:56;101026.09;;;8.08;65.90
13974;BME280;7060;43.770;4.008;2023-04-26T05:37:24;101029.13;;;8.58;65.30
13974;BME280;7060;43.770;4.008;2023-04-26T05:39:53;101028.84;;;9.04;64.81
13974;BME280;7060;43.770;4.008;2023-04-26T05:42:21;101035.53;;;9.31;63.18
13974;BME280;7060;43.770;4.008;2023-04-26T05:44:50;101040.91;;;9.40;62.61
13974;BME280;7060;43.770;4.008;2023-04-26T05:47:18;101047.63;;;9.56;62.52
13974;BME280;7060;43.770;4.008;2023-04-26T05:49:47;101052.72;;;9.89;62.41
13974;BME280;7060;43.770;4.008;2023-04-26T05:52:17;101064.38;;;10.18;61.91
13974;BME280;7060;43.770;4.008;2023-04-26T05:54:47;101062.91;;;10.45;61.12
13974;BME280;7060;43.770;4.008;2023-04-26T05:57:15;101071.81;;;10.65;60.54
13974;BME280;7060;43.770;4.008;2023-04-26T05:59:45;101069.88;;;10.76;60.12
13974;BME280;7060;43.770;4.008;2023-04-26T06:02:15;101072.56;;;10.86;59.90
13974;BME280;7060;43.770;4.008;2023-04-26T06:04:44;101059.31;;;11.04;59.62
13974;BME280;7060;43.770;4.008;2023-04-26T06:07:15;101065.94;;;11.09;59.58
13974;BME280;7060;43.770;4.008;2023-04-26T06:09:47;101065.53;;;11.14;59.90
13974;BME280;7060;43.770;4.008;2023-04-26T06:12:16;101063.81;;;11.32;59.71
13974;BME280;7060;43.770;4.008;2023-04-26T06:14:45;101064.38;;;11.55;59.25
13974;BME280;7060;43.770;4.008;2023-04-26T06:17:18;101063.59;;;11.82;59.07
13974;BME280;7060;43.770;4.008;2023-04-26T06:19:47;101071.34;;;12.22;58.25
13974;BME280;7060;43.770;4.008;2023-04-26T06:22:16;101067.03;;;12.66;57.28
13974;BME280;7060;43.770;4.008;2023-04-26T06:24:44;101060.81;;;13.19;56.61
13974;BME280;7060;43.770;4.008;2023-04-26T06:27:14;101062.13;;;13.76;56.03
13974;BME280;7060;43.770;4.008;2023-04-26T06:29:46;101053.84;;;14.38;54.82
13974;BME280;7060;43.770;4.008;2023-04-26T06:32:16;101060.41;;;14.94;53.25
13974;BME280;7060;43.770;4.008;2023-04-26T06:34:45;101058.06;;;15.31;51.58
13974;BME280;7060;43.770;4.008;2023-04-26T06:37:13;101055.69;;;15.77;50.21
13974;BME280;7060;43.770;4.008;2023-04-26T06:39:42;101058.59;;;16.22;49.17
13974;BME280;7060;43.770;4.008;2023-04-26T06:42:11;101048.66;;;16.54;48.78
13974;BME280;7060;43.770;4.008;2023-04-26T06:45:01;101046.34;;;17.05;48.16
13974;BME280;7060;43.770;4.008;2023-04-26T06:47:32;101051.22;;;17.47;46.77
13974;BME280;7060;43.770;4.008;2023-04-26T06:50:02;101028.59;;;17.63;45.92
13974;BME280;7060;43.770;4.008;2023-04-26T06:52:31;101045.53;;;18.09;44.95
13974;BME280;7060;43.770;4.008;2023-04-26T06:55:00;101053.25;;;18.56;43.90
13974;BME280;7060;43.770;4.008;2023-04-26T06:57:29;101049.88;;;18.90;43.00
13974;BME280;7060;43.770;4.008;2023-04-26T06:59:58;101049.94;;;19.39;41.52
13974;BME280;7060;43.770;4.008;2023-04-26T07:02:27;101048.13;;;19.46;41.02
13974;BME280;7060;43.770;4.008;2023-04-26T07:04:56;101038.56;;;19.78;40.68
13974;BME280;7060;43.770;4.008;2023-04-26T07:07:25;101051.47;;;20.11;40.02
13974;BME280;7060;43.770;4.008;2023-04-26T07:09:54;101053.59;;;20.50;38.71
13974;BME280;7060;43.770;4.008;2023-04-26T07:12:22;101050.94;;;20.70;39.47
13974;BME280;7060;43.770;4.008;2023-04-26T07:14:51;101042.88;;;21.16;39.05
13974;BME280;7060;43.770;4.008;2023-04-26T07:17:19;101048.38;;;21.42;38.69
13974;BME280;7060;43.770;4.008;2023-04-26T07:19:49;101047.94;;;21.65;37.15
13974;BME280;7060;43.770;4.008;2023-04-26T07:22:18;101046.84;;;21.73;37.00
13974;BME280;7060;43.770;4.008;2023-04-26T07:24:47;101043.09;;;21.93;36.35
13974;BME280;7060;43.770;4.008;2023-04-26T07:27:15;101042.53;;;22.36;35.80
13974;BME280;7060;43.770;4.008;2023-04-26T07:29:44;101036.81;;;22.57;34.52
13974;BME280;7060;43.770;4.008;2023-04-26T07:32:12;101044.13;;;22.57;33.42
13974;BME280;7060;43.770;4.008;2023-04-26T07:34:41;101042.69;;;22.92;34.14
13974;BME280;7060;43.770;4.008;2023-04-26T07:37:11;101041.63;;;22.93;32.46
13974;BME280;7060;43.770;4.008;2023-04-26T07:39:39;101039.25;;;22.72;32.17
13974;BME280;7060;43.770;4.008;2023-04-26T07:42:07;101037.28;;;22.41;30.93
13974;BME280;7060;43.770;4.008;2023-04-26T07:44:37;101036.56;;;22.01;31.34
13974;BME280;7060;43.770;4.008;2023-04-26T07:47:10;101016.94;;;21.59;32.88
13974;BME280;7060;43.770;4.008;2023-04-26T07:49:39;101033.06;;;21.48;33.54
13974;BME280;7060;43.770;4.008;2023-04-26T07:52:08;101030.16;;;21.36;34.37
13974;BME280;7060;43.770;4.008;2023-04-26T07:54:38;101030.13;;;21.16;35.22
13974;BME280;7060;43.770;4.008;2023-04-26T07:57:07;101026.09;;;20.92;34.65
13974;BME280;7060;43.770;4.008;2023-04-26T07:59:35;101031.13;;;20.82;35.33
13974;BME280;7060;43.770;4.008;2023-04-26T08:02:04;101028.81;;;20.79;36.05
13974;BME280;7060;43.770;4.008;2023-04-26T08:04:34;101025.84;;;20.68;35.87
13974;BME280;7060;43.770;4.008;2023-04-26T08:07:04;101023.72;;;20.50;35.94
13974;BME280;7060;43.770;4.008;2023-04-26T08:09:35;101030.63;;;20.59;37.05
13974;BME280;7060;43.770;4.008;2023-04-26T08:12:06;101024.56;;;20.57;36.49
13974;BME280;7060;43.770;4.008;2023-04-26T08:14:36;101031.69;;;20.58;36.41
13974;BME280;7060;43.770;4.008;2023-04-26T08:17:04;101030.63;;;20.59;36.65
13974;BME280;7060;43.770;4.008;2023-04-26T08:19:34;101040.44;;;20.53;37.07
13974;BME280;7060;43.770;4.008;2023-04-26T08:22:02;101032.53;;;20.58;36.98
13974;BME280;7060;43.770;4.008;2023-04-26T08:24:31;101027.69;;;20.54;36.54
13974;BME280;7060;43.770;4.008;2023-04-26T08:27:00;101028.94;;;20.51;36.46
13974;BME280;7060;43.770;4.008;2023-04-26T08:29:29;101029.78;;;20.52;36.23
13974;BME280;7060;43.770;4.008;2023-04-26T08:31:58;101028.50;;;20.48;36.67
13974;BME280;7060;43.770;4.008;2023-04-26T08:34:27;101011.81;;;20.51;36.97
13974;BME280;7060;43.770;4.008;2023-04-26T08:36:55;101006.81;;;20.54;36.97
13974;BME280;7060;43.770;4.008;2023-04-26T08:39:24;101009.94;;;20.58;36.38
13974;BME280;7060;43.770;4.008;2023-04-26T08:41:53;101002.84;;;20.63;36.77
13974;BME280;7060;43.770;4.008;2023-04-26T08:44:23;101007.03;;;20.66;36.32
13974;BME280;7060;43.770;4.008;2023-04-26T08:46:57;101014.53;;;20.64;36.89
13974;BME280;7060;43.770;4.008;2023-04-26T08:49:38;101010.78;;;20.65;37.30
13974;BME280;7060;43.770;4.008;2023-04-26T08:52:08;100978.56;;;20.49;36.17
13974;BME280;7060;43.770;4.008;2023-04-26T08:54:38;101005.63;;;20.83;36.71
13974;BME280;7060;43.770;4.008;2023-04-26T08:57:08;101001.84;;;20.98;36.45
13974;BME280;7060;43.770;4.008;2023-04-26T08:59:37;101008.81;;;21.07;35.70
13974;BME280;7060;43.770;4.008;2023-04-26T09:02:09;101008.38;;;21.16;36.09
13974;BME280;7060;43.770;4.008;2023-04-26T09:04:38;101001.91;;;21.17;35.74
13974;BME280;7060;43.770;4.008;2023-04-26T09:07:09;101007.97;;;21.26;35.55
13974;BME280;7060;43.770;4.008;2023-04-26T09:09:41;101000.44;;;21.28;35.32
13974;BME280;7060;43.770;4.008;2023-04-26T09:12:09;101005.88;;;21.28;34.85
13974;BME280;7060;43.770;4.008;2023-04-26T09:14:38;101005.47;;;21.31;34.86
13974;BME280;7060;43.770;4.008;2023-04-26T09:17:26;101010.88;;;21.51;35.59
13974;BME280;7060;43.770;4.008;2023-04-26T09:19:56;101012.13;;;21.55;34.86
13974;BME280;7060;43.770;4.008;2023-04-26T09:22:33;101003.97;;;21.55;34.46
13974;BME280;7060;43.770;4.008;2023-04-26T09:25:02;101001.25;;;21.55;34.46
13974;BME280;7060;43.770;4.008;2023-04-26T09:27:32;101001.69;;;21.65;34.67
13974;BME280;7060;43.770;4.008;2023-04-26T09:30:05;100983.63;;;21.71;34.49
13974;BME280;7060;43.770;4.008;2023-04-26T09:32:53;100989.72;;;21.92;34.07
13974;BME280;7060;43.770;4.008;2023-04-26T09:35:30;100992.63;;;21.91;34.40
13974;BME280;7060;43.770;4.008;2023-04-26T09:38:02;100993.88;;;21.95;35.02
13974;BME280;7060;43.770;4.008;2023-04-26T09:40:40;100988.81;;;21.99;34.38
13974;BME280;7060;43.770;4.008;2023-04-26T09:43:10;100980.66;;;22.05;34.33
13974;BME280;7060;43.770;4.008;2023-04-26T09:45:43;100983.75;;;22.15;34.99
13974;BME280;7060;43.770;4.008;2023-04-26T09:48:18;100990.41;;;22.26;35.04
13974;BME280;7060;43.770;4.008;2023-04-26T09:50:50;100983.22;;;22.38;35.09
13974;BME280;7060;43.770;4.008;2023-04-26T09:53:27;100973.13;;;22.45;34.38
13974;BME280;7060;43.770;4.008;2023-04-26T09:56:05;100982.28;;;22.64;35.11
13974;BME280;7060;43.770;4.008;2023-04-26T09:58:35;100980.13;;;22.73;34.58
13974;BME280;7060;43.770;4.008;2023-04-26T10:01:06;100979.94;;;22.68;33.42
13974;BME280;7060;43.770;4.008;2023-04-26T10:03:36;100979.28;;;22.72;34.02
13974;BME280;7060;43.770;4.008;2023-04-26T10:06:06;100977.38;;;22.79;34.02
13974;BME280;7060;43.770;4.008;2023-04-26T10:08:35;100967.81;;;22.95;34.63
13974;BME280;7060;43.770;4.008;2023-04-26T10:11:04;100958.66;;;23.08;34.87
13974;BME280;7060;43.770;4.008;2023-04-26T10:13:33;100965.47;;;23.23;34.69
13974;BME280;7060;43.770;4.008;2023-04-26T10:16:02;100962.34;;;23.26;34.02
13974;BME280;7060;43.770;4.008;2023-04-26T10:18:33;100920.25;;;23.09;34.13
13974;BME280;7060;43.770;4.008;2023-04-26T10:21:06;100959.84;;;23.43;33.55
13974;BME280;7060;43.770;4.008;2023-04-26T10:23:37;100959.25;;;23.41;34.57
13974;BME280;7060;43.770;4.008;2023-04-26T10:26:06;100946.38;;;23.48;33.94
13974;BME280;7060;43.770;4.008;2023-04-26T10:28:53;100938.97;;;23.55;34.96
13974;BME280;7060;43.770;4.008;2023-04-26T10:34:38;100938.41;;;23.65;34.59
13974;BME280;7060;43.770;4.008;2023-04-26T10:37:09;100944.56;;;23.79;34.48
13974;BME280;7060;43.770;4.008;2023-04-26T10:39:39;100935.78;;;23.95;34.32
13974;BME280;7060;43.770;4.008;2023-04-26T10:42:21;100935.78;;;23.95;33.92
13974;BME280;7060;43.770;4.008;2023-04-26T10:44:53;100927.28;;;24.03;33.90
13974;BME280;7060;43.770;4.008;2023-04-26T10:47:28;100927.28;;;24.03;33.80
13974;BME280;7060;43.770;4.008;2023-04-26T10:50:02;100930.63;;;24.05;34.04
13974;BME280;7060;43.770;4.008;2023-04-26T10:52:34;100928.34;;;24.02;34.03
13974;BME280;7060;43.770;4.008;2023-04-26T10:55:03;100924.63;;;24.15;34.43
13974;BME280;7060;43.770;4.008;2023-04-26T10:57:51;100917.25;;;24.15;33.69
13974;BME280;7060;43.770;4.008;2023-04-26T11:00:29;100912.72;;;24.09;34.22
13974;BME280;7060;43.770;4.008;2023-04-26T11:03:06;100916.88;;;24.12;34.94
13974;BME280;7060;43.770;4.008;2023-04-26T11:05:47;100926.63;;;24.19;34.55
13974;BME280;7060;43.770;4.008;2023-04-26T11:08:20;100917.06;;;24.28;33.12
13974;BME280;7060;43.770;4.008;2023-04-26T11:10:58;100869.34;;;24.01;33.89
13974;BME280;7060;43.770;4.008;2023-04-26T11:13:34;100899.00;;;24.27;33.65
13974;BME280;7060;43.770;4.008;2023-04-26T11:16:04;100905.81;;;24.37;34.38
13974;BME280;7060;43.770;4.008;2023-04-26T11:18:33;100905.81;;;24.37;33.62
13974;BME280;7060;43.770;4.008;2023-04-26T11:21:03;100894.81;;;24.43;33.81
13974;BME280;7060;43.770;4.008;2023-04-26T11:23:34;100871.03;;;24.44;34.37
13974;BME280;7060;43.770;4.008;2023-04-26T11:26:03;100894.53;;;24.75;34.23
13974;BME280;7060;43.770;4.008;2023-04-26T11:28:33;100896.22;;;24.87;33.90
13974;BME280;7060;43.770;4.008;2023-04-26T11:31:02;100894.91;;;25.02;33.16
13974;BME280;7060;43.770;4.008;2023-04-26T11:33:31;100882.19;;;25.07;32.28
13974;BME280;7060;43.770;4.008;2023-04-26T11:36:01;100849.38;;;24.84;32.42
13974;BME280;7060;43.770;4.008;2023-04-26T11:38:30;100868.88;;;24.87;32.30
13974;BME280;7060;43.770;4.008;2023-04-26T11:41:00;100869.44;;;24.78;32.96
13974;BME280;7060;43.770;4.008;2023-04-26T11:43:33;100865.41;;;24.80;33.61
13974;BME280;7060;43.770;4.008;2023-04-26T11:46:03;100863.41;;;24.87;33.91
13974;BME280;7060;43.770;4.008;2023-04-26T11:48:34;100862.81;;;24.97;33.04
13974;BME280;7060;43.770;4.008;2023-04-26T11:51:03;100864.13;;;24.94;33.40
13974;BME280;7060;43.770;4.008;2023-04-26T11:53:34;100862.94;;;24.90;33.87
13974;BME280;7060;43.770;4.008;2023-04-26T11:56:12;100865.78;;;24.95;33.58
13974;BME280;7060;43.770;4.008;2023-04-26T11:58:46;100862.69;;;25.04;33.37
13974;BME280;7060;43.770;4.008;2023-04-26T12:01:21;100859.59;;;25.00;33.47
13974;BME280;7060;43.770;4.008;2023-04-26T12:03:51;100820.00;;;24.68;33.50
13974;BME280;7060;43.770;4.008;2023-04-26T12:06:25;100860.31;;;24.84;33.94
13974;BME280;7060;43.770;4.008;2023-04-26T12:08:56;100866.34;;;24.74;33.69
13974;BME280;7060;43.770;4.008;2023-04-26T12:11:26;100863.16;;;24.77;33.15
13974;BME280;7060;43.770;4.008;2023-04-26T12:13:57;100856.59;;;24.78;33.69
13974;BME280;7060;43.770;4.008;2023-04-26T12:16:27;100856.00;;;24.76;33.67
13974;BME280;7060;43.770;4.008;2023-04-26T12:18:56;100863.75;;;24.79;34.55
13974;BME280;7060;43.770;4.008;2023-04-26T12:21:24;100855.44;;;24.86;34.27
13974;BME280;7060;43.770;4.008;2023-04-26T12:23:56;100861.25;;;24.89;33.52
13974;BME280;7060;43.770;4.008;2023-04-26T12:29:19;100869.47;;;24.89;33.56
13974;BME280;7060;43.770;4.008;2023-04-26T12:31:47;100870.44;;;24.95;33.93
13974;BME280;7060;43.770;4.008;2023-04-26T12:34:16;100868.63;;;25.01;33.42
13974;BME280;7060;43.770;4.008;2023-04-26T12:36:46;100866.13;;;24.99;33.05
13974;BME280;7060;43.770;4.008;2023-04-26T12:39:16;100873.75;;;24.97;33.24
13974;BME280;7060;43.770;4.008;2023-04-26T12:41:45;100872.09;;;24.96;33.25
13974;BME280;7060;43.770;4.008;2023-04-26T12:44:15;100866.38;;;24.98;32.80
13974;BME280;7060;43.770;4.008;2023-04-26T12:46:49;100874.69;;;24.91;33.53
13974;BME280;7060;43.770;4.008;2023-04-26T12:49:18;100864.59;;;25.03;33.98
13974;BME280;7060;43.770;4.008;2023-04-26T12:51:47;100860.91;;;25.09;32.87
13974;BME280;7060;43.770;4.008;2023-04-26T12:54:15;100852.47;;;25.11;32.29
13974;BME280;7060;43.770;4.008;2023-04-26T12:56:44;100856.38;;;25.15;33.01
13974;BME280;7060;43.770;4.008;2023-04-26T12:59:12;100857.56;;;25.07;33.69
13974;BME280;7060;43.770;4.008;2023-04-26T13:01:41;100854.34;;;25.10;33.05
13974;BME280;7060;43.770;4.008;2023-04-26T13:04:11;100849.84;;;25.16;33.53
13974;BME280;7060;43.770;4.008;2023-04-26T13:06:39;100854.47;;;25.15;33.02
13974;BME280;7060;43.770;4.008;2023-04-26T13:09:08;100848.53;;;25.07;33.56
13974;BME280;7060;43.770;4.008;2023-04-26T13:11:39;100850.06;;;25.03;33.29
13974;BME280;7060;43.770;4.008;2023-04-26T13:14:07;100868.41;;;24.90;33.40
13974;BME280;7060;43.770;4.008;2023-04-26T13:16:36;100849.13;;;24.85;33.63
13974;BME280;7060;43.770;4.008;2023-04-26T13:19:08;100857.34;;;24.85;34.71
13974;BME280;7060;43.770;4.008;2023-04-26T13:21:38;100843.78;;;24.79;34.61
13974;BME280;7060;43.770;4.008;2023-04-26T13:24:08;100849.50;;;24.89;34.88